createdAt,value
2023-04-10T00:00:20.793Z,99097.69
2023-04-10T00:03:06.490Z,99089.94
2023-04-10T00:05:51.987Z,99090.69
2023-04-10T00:08:37.650Z,99094.88
2023-04-10T00:11:23.150Z,99090.59
2023-04-10T00:14:08.812Z,99092.00
2023-04-10T00:16:54.180Z,99079.63
2023-04-10T00:19:39.955Z,99070.81
2023-04-10T00:22:25.345Z,99092.03
2023-04-10T00:25:10.673Z,99084.00
2023-04-10T00:27:56.277Z,98994.38
2023-04-10T00:30:41.779Z,99086.94
2023-04-10T00:33:27.158Z,99081.34
2023-04-10T00:36:12.491Z,99063.38
2023-04-10T00:38:57.726Z,99081.22
2023-04-10T00:41:43.288Z,99081.47
2023-04-10T00:44:28.481Z,99064.41
2023-04-10T00:47:13.936Z,99058.75
2023-04-10T00:49:59.860Z,99057.97
2023-04-10T00:52:45.227Z,99057.13
2023-04-10T00:55:30.709Z,99055.53
2023-04-10T00:58:16.258Z,99056.94
2023-04-10T01:01:02.301Z,99037.59
2023-04-10T01:03:47.832Z,99047.34
2023-04-10T01:07:00.629Z,99061.66
2023-04-10T01:09:57.777Z,99050.06
2023-04-10T01:12:49.003Z,99057.44
2023-04-10T01:15:52.442Z,99059.50
2023-04-10T01:18:44.270Z,99068.75
2023-04-10T01:21:31.142Z,99080.06
2023-04-10T01:25:13.998Z,99080.34
2023-04-10T01:28:05.523Z,99086.81
2023-04-10T01:30:53.762Z,99082.56
2023-04-10T01:33:46.669Z,99078.56
2023-04-10T01:36:38.218Z,99064.19
2023-04-10T01:39:26.683Z,99096.75
2023-04-10T01:42:15.563Z,99103.50
2023-04-10T01:45:04.889Z,99097.16
2023-04-10T01:47:50.454Z,99073.88
2023-04-10T01:50:36.398Z,99088.47
2023-04-10T01:53:23.799Z,99085.84
2023-04-10T01:56:09.607Z,99079.91
2023-04-10T01:59:02.159Z,99082.50
2023-04-10T02:01:47.619Z,99085.09
2023-04-10T02:04:33.849Z,99080.41
2023-04-10T02:07:27.283Z,99074.63
2023-04-10T02:10:35.255Z,99070.75
2023-04-10T02:13:22.250Z,99073.06
2023-04-10T02:16:09.508Z,99074.09
2023-04-10T02:18:55.977Z,99074.13
2023-04-10T02:21:41.708Z,99071.13
2023-04-10T02:24:27.487Z,99072.50
2023-04-10T02:27:12.664Z,99070.94
2023-04-10T02:29:57.872Z,99064.91
2023-04-10T02:32:43.500Z,99069.34
2023-04-10T02:35:28.695Z,99075.88
2023-04-10T02:38:16.800Z,99066.63
2023-04-10T02:41:02.747Z,99071.84
2023-04-10T02:43:47.800Z,99025.50
2023-04-10T02:46:33.982Z,99059.59
2023-04-10T02:49:19.736Z,99073.31
2023-04-10T02:52:08.114Z,99067.47
2023-04-10T02:54:53.614Z,99063.34
2023-04-10T02:57:38.918Z,99072.06
2023-04-10T03:00:24.079Z,99058.81
2023-04-10T03:03:34.972Z,99052.44
2023-04-10T03:06:20.542Z,99050.78
2023-04-10T03:09:05.886Z,99002.88
2023-04-10T03:11:52.512Z,99052.13
2023-04-10T03:14:38.122Z,99058.34
2023-04-10T03:17:23.176Z,99054.69
2023-04-10T03:20:10.195Z,99050.78
2023-04-10T03:22:55.640Z,99044.00
2023-04-10T03:25:45.122Z,99045.50
2023-04-10T03:28:30.966Z,99054.16
2023-04-10T03:31:16.408Z,99050.22
2023-04-10T03:34:02.756Z,99046.91
2023-04-10T03:36:47.874Z,99047.28
2023-04-10T03:39:33.256Z,99035.69
2023-04-10T03:42:18.426Z,99026.84
2023-04-10T03:45:04.403Z,99030.25
2023-04-10T03:47:49.961Z,99036.22
2023-04-10T03:50:36.459Z,99037.09
2023-04-10T03:53:21.994Z,99038.50
2023-04-10T03:56:08.376Z,99043.41
2023-04-10T03:58:54.877Z,99049.25
2023-04-10T04:01:40.988Z,99058.13
2023-04-10T04:04:29.532Z,99023.69
2023-04-10T04:07:32.455Z,99053.47
2023-04-10T04:10:33.281Z,99042.94
2023-04-10T04:13:30.384Z,99032.66
2023-04-10T04:16:28.613Z,98961.38
2023-04-10T04:19:31.049Z,99050.31
2023-04-10T04:22:29.955Z,99045.09
2023-04-10T04:25:44.638Z,99042.56
2023-04-10T04:28:48.926Z,99052.47
2023-04-10T04:31:41.244Z,99058.91
2023-04-10T04:34:46.373Z,99060.28
2023-04-10T04:37:50.355Z,99050.38
2023-04-10T04:40:54.423Z,99056.16
2023-04-10T04:43:57.516Z,99056.53
2023-04-10T04:46:48.849Z,99053.25
2023-04-10T04:50:00.598Z,99049.19
2023-04-10T04:53:02.939Z,99050.59
2023-04-10T04:56:17.339Z,99052.59
2023-04-10T04:59:03.042Z,99056.00
2023-04-10T05:02:14.660Z,99050.66
2023-04-10T05:05:26.031Z,99054.44
2023-04-10T05:08:31.283Z,99033.88
2023-04-10T05:11:39.753Z,98997.94
2023-04-10T05:14:43.732Z,99050.63
2023-04-10T05:17:50.832Z,99059.75
2023-04-10T05:20:56.558Z,99053.22
2023-04-10T05:24:02.282Z,99058.22
2023-04-10T05:27:03.450Z,99051.78
2023-04-10T05:30:00.760Z,99056.00
2023-04-10T05:32:55.266Z,99053.47
2023-04-10T05:36:00.433Z,99061.91
2023-04-10T05:38:59.235Z,99063.59
2023-04-10T05:42:16.867Z,99034.97
2023-04-10T05:45:06.671Z,99063.97
2023-04-10T05:48:19.507Z,99027.03
2023-04-10T05:51:23.809Z,99044.78
2023-04-10T05:54:28.425Z,99033.53
2023-04-10T05:57:45.719Z,99036.28
2023-04-10T06:00:44.360Z,99070.16
2023-04-10T06:03:59.362Z,99070.16
2023-04-10T06:06:45.206Z,99062.03
2023-04-10T06:09:30.662Z,98978.59
2023-04-10T06:12:15.829Z,99070.03
2023-04-10T06:15:02.174Z,99065.38
2023-04-10T06:17:53.337Z,99061.38
2023-04-10T06:20:38.673Z,99064.84
2023-04-10T06:23:25.577Z,99057.25
2023-04-10T06:26:10.743Z,99012.66
2023-04-10T06:28:56.305Z,98994.19
2023-04-10T06:31:44.548Z,99002.75
2023-04-10T06:34:30.535Z,99051.09
2023-04-10T06:37:20.167Z,99051.97
2023-04-10T06:40:08.834Z,99046.81
2023-04-10T06:42:54.208Z,99043.34
2023-04-10T06:45:46.102Z,99050.69
2023-04-10T06:48:32.251Z,99034.63
2023-04-10T06:51:17.741Z,99058.63
2023-04-10T06:54:02.922Z,99038.19
2023-04-10T06:56:48.172Z,99044.34
2023-04-10T06:59:33.580Z,99043.81
2023-04-10T07:02:18.961Z,99020.47
2023-04-10T07:05:04.540Z,99005.56
2023-04-10T07:07:49.776Z,99034.53
2023-04-10T07:10:35.077Z,99030.59
2023-04-10T07:13:20.327Z,99037.34
2023-04-10T07:16:06.708Z,98976.75
2023-04-10T07:18:52.229Z,99027.59
2023-04-10T07:21:37.931Z,99024.34
2023-04-10T07:24:23.821Z,99019.63
2023-04-10T07:27:09.191Z,99020.28
2023-04-10T07:29:55.651Z,98932.09
2023-04-10T07:32:41.458Z,99012.03
2023-04-10T07:35:26.900Z,99005.34
2023-04-10T07:38:12.530Z,99016.00
2023-04-10T07:40:58.826Z,99005.25
2023-04-10T07:43:43.846Z,99005.88
2023-04-10T07:46:29.368Z,99001.31
2023-04-10T07:49:14.595Z,99005.75
2023-04-10T07:51:59.868Z,98946.47
2023-04-10T07:54:45.406Z,98999.69
2023-04-10T07:57:31.422Z,99009.88
2023-04-10T08:00:17.009Z,99000.63
2023-04-10T08:03:03.094Z,98983.81
2023-04-10T08:05:48.531Z,98972.94
2023-04-10T08:08:34.173Z,98982.03
2023-04-10T08:11:27.449Z,98959.59
2023-04-10T08:14:12.717Z,98976.22
2023-04-10T08:16:58.204Z,98971.16
2023-04-10T08:19:43.668Z,98972.69
2023-04-10T08:22:28.920Z,98963.59
2023-04-10T08:25:14.094Z,98918.91
2023-04-10T08:27:59.439Z,98950.47
2023-04-10T08:30:45.102Z,98939.59
2023-04-10T08:33:30.488Z,98955.41
2023-04-10T08:36:18.373Z,98906.38
2023-04-10T08:39:05.073Z,98947.41
2023-04-10T08:41:50.490Z,98941.47
2023-04-10T08:44:35.684Z,98891.63
2023-04-10T08:47:23.754Z,98906.28
2023-04-10T08:50:13.057Z,98927.84
2023-04-10T08:53:05.053Z,98924.38
2023-04-10T08:55:50.679Z,98917.16
2023-04-10T08:58:36.160Z,98929.41
2023-04-10T09:01:21.760Z,98905.47
2023-04-10T09:04:07.502Z,98911.78
2023-04-10T09:06:53.408Z,98844.63
2023-04-10T09:09:38.614Z,98910.09
2023-04-10T09:12:23.879Z,98832.84
2023-04-10T09:15:09.285Z,98892.09
2023-04-10T09:18:02.894Z,98898.44
2023-04-10T09:20:48.479Z,98895.97
2023-04-10T09:23:33.942Z,98893.19
2023-04-10T09:26:22.026Z,98886.97
2023-04-10T09:29:07.821Z,98845.78
2023-04-10T09:31:53.249Z,98879.69
2023-04-10T09:34:55.563Z,98871.50
2023-04-10T09:37:42.562Z,98859.53
2023-04-10T09:40:27.904Z,98866.72
2023-04-10T09:43:27.117Z,98863.03
2023-04-10T09:46:12.280Z,98851.38
2023-04-10T09:48:57.436Z,98847.09
2023-04-10T09:51:43.077Z,98852.38
2023-04-10T09:54:37.703Z,98845.81
2023-04-10T09:57:25.388Z,98843.31
2023-04-10T10:00:12.355Z,98845.34
2023-04-10T10:03:00.519Z,98831.59
2023-04-10T10:05:48.833Z,98830.56
2023-04-10T10:08:35.662Z,98834.56
2023-04-10T10:11:23.451Z,98827.03
2023-04-10T10:14:18.591Z,98818.88
2023-04-10T10:17:11.644Z,98812.75
2023-04-10T10:20:07.217Z,98813.75
2023-04-10T10:22:53.516Z,98798.78
2023-04-10T10:25:39.559Z,98762.84
2023-04-10T10:28:27.965Z,98715.84
2023-04-10T10:31:14.831Z,98788.34
2023-04-10T10:34:01.827Z,98789.38
2023-04-10T10:36:47.329Z,98780.16
2023-04-10T10:39:55.659Z,98778.03
2023-04-10T10:42:53.461Z,98770.88
2023-04-10T10:45:50.789Z,98758.19
2023-04-10T10:48:36.210Z,98760.22
2023-04-10T10:51:21.438Z,98751.47
2023-04-10T10:54:37.661Z,98740.19
2023-04-10T10:57:48.241Z,98742.03
2023-04-10T11:00:51.907Z,98732.25
2023-04-10T11:03:37.955Z,98728.38
2023-04-10T11:06:49.492Z,98721.50
2023-04-10T11:09:50.868Z,98720.72
2023-04-10T11:13:14.546Z,98714.31
2023-04-10T11:16:01.229Z,98714.81
2023-04-10T11:18:47.229Z,98710.41
2023-04-10T11:21:34.933Z,98703.63
2023-04-10T11:24:20.333Z,98704.53
2023-04-10T11:27:05.933Z,98704.81
2023-04-10T11:29:51.233Z,98706.16
2023-04-10T11:32:45.461Z,98686.75
2023-04-10T11:35:32.001Z,98687.06
2023-04-10T11:38:18.070Z,98692.50
2023-04-10T11:41:04.631Z,98689.94
2023-04-10T11:43:53.043Z,98680.06
2023-04-10T11:46:40.000Z,98680.03
2023-04-10T11:49:27.685Z,98617.28
2023-04-10T11:52:13.408Z,98653.75
2023-04-10T11:54:58.938Z,98652.66
2023-04-10T11:57:45.703Z,98648.16
2023-04-10T12:00:31.266Z,98641.84
2023-04-10T12:03:16.910Z,98640.19
2023-04-10T12:06:04.445Z,98633.69
2023-04-10T12:08:49.570Z,98573.72
2023-04-10T12:11:35.139Z,98623.31
2023-04-10T12:14:21.943Z,98616.09
2023-04-10T12:17:11.905Z,98614.72
2023-04-10T12:19:57.284Z,98610.06
2023-04-10T12:22:43.327Z,98604.25
2023-04-10T12:25:28.330Z,98576.28
2023-04-10T12:28:20.739Z,98593.31
2023-04-10T12:31:06.768Z,98540.53
2023-04-10T12:33:52.188Z,98580.44
2023-04-10T12:36:37.647Z,98582.59
2023-04-10T12:39:24.783Z,98562.25
2023-04-10T12:42:20.488Z,98544.28
2023-04-10T12:45:06.440Z,98566.53
2023-04-10T12:47:51.962Z,98546.22
2023-04-10T12:50:47.357Z,98551.25
2023-04-10T12:53:43.131Z,98543.63
2023-04-10T12:56:39.527Z,98542.97
2023-04-10T12:59:25.819Z,98536.00
2023-04-10T13:02:11.205Z,98532.25
2023-04-10T13:04:56.364Z,98533.50
2023-04-10T13:07:41.758Z,98470.16
2023-04-10T13:10:29.225Z,98528.53
2023-04-10T13:13:14.956Z,98526.59
2023-04-10T13:16:00.195Z,98524.91
2023-04-10T13:18:45.934Z,98516.69
2023-04-10T13:21:31.352Z,98496.59
2023-04-10T13:24:16.923Z,98501.88
2023-04-10T13:27:02.361Z,98496.06
2023-04-10T13:29:47.799Z,98432.72
2023-04-10T13:32:33.346Z,98493.59
2023-04-10T13:35:18.851Z,98491.06
2023-04-10T13:38:04.083Z,98490.41
2023-04-10T13:40:49.733Z,98489.94
2023-04-10T13:43:36.329Z,98484.09
2023-04-10T13:46:21.745Z,98482.41
2023-04-10T13:49:06.784Z,98480.34
2023-04-10T13:51:52.123Z,98482.75
2023-04-10T13:54:37.534Z,98481.66
2023-04-10T13:57:23.085Z,98468.88
2023-04-10T14:00:08.743Z,98464.44
2023-04-10T14:03:00.749Z,98461.63
2023-04-10T14:05:46.363Z,98462.97
2023-04-10T14:08:31.615Z,98455.56
2023-04-10T14:11:17.075Z,98457.50
2023-04-10T14:14:02.228Z,98453.41
2023-04-10T14:16:47.760Z,98462.81
2023-04-10T14:19:34.755Z,98449.88
2023-04-10T14:22:20.625Z,98438.53
2023-04-10T14:25:13.225Z,98444.47
2023-04-10T14:27:58.909Z,98436.69
2023-04-10T14:30:49.256Z,98436.44
2023-04-10T14:33:34.763Z,98426.09
2023-04-10T14:36:20.462Z,98416.78
2023-04-10T14:39:05.868Z,98420.50
2023-04-10T14:41:51.809Z,98411.69
2023-04-10T14:44:37.593Z,98403.03
2023-04-10T14:47:22.924Z,98405.28
2023-04-10T14:50:08.451Z,98397.13
2023-04-10T14:52:53.616Z,98390.03
2023-04-10T14:55:39.222Z,98387.03
2023-04-10T14:58:24.954Z,98378.53
2023-04-10T15:01:12.510Z,98375.16
2023-04-10T15:03:58.218Z,98378.34
2023-04-10T15:06:43.831Z,98373.47
2023-04-10T15:09:29.297Z,98367.34
2023-04-10T15:12:14.496Z,98360.13
2023-04-10T15:14:59.637Z,98351.97
2023-04-10T15:17:45.240Z,98357.28
2023-04-10T15:20:30.296Z,98359.13
2023-04-10T15:23:15.795Z,98355.44
2023-04-10T15:26:01.103Z,98344.16
2023-04-10T15:28:46.670Z,98332.47
2023-04-10T15:31:32.268Z,98337.53
2023-04-10T15:34:17.629Z,98331.75
2023-04-10T15:37:02.799Z,98275.94
2023-04-10T15:39:47.979Z,98306.91
2023-04-10T15:42:34.679Z,98246.84
2023-04-10T15:45:20.119Z,98312.53
2023-04-10T15:48:05.454Z,98295.22
2023-04-10T15:50:50.945Z,98301.38
2023-04-10T15:53:36.673Z,98291.91
2023-04-10T15:56:21.748Z,98287.69
2023-04-10T15:59:07.366Z,98265.63
2023-04-10T16:01:52.849Z,98280.13
2023-04-10T16:04:38.318Z,98270.31
2023-04-10T16:07:23.697Z,98262.47
2023-04-10T16:10:09.970Z,98243.72
2023-04-10T16:12:55.376Z,98188.13
2023-04-10T16:15:40.623Z,98246.16
2023-04-10T16:18:25.850Z,98236.84
2023-04-10T16:21:12.319Z,98236.84
2023-04-10T16:23:58.269Z,98224.47
2023-04-10T16:26:43.585Z,98189.44
2023-04-10T16:29:28.879Z,98209.75
2023-04-10T16:32:14.385Z,98206.91
2023-04-10T16:34:59.764Z,98205.75
2023-04-10T16:37:46.279Z,98216.91
2023-04-10T16:40:31.611Z,98205.41
2023-04-10T16:43:16.721Z,98205.13
2023-04-10T16:46:02.276Z,98194.69
2023-04-10T16:48:47.471Z,98181.09
2023-04-10T16:51:32.881Z,98196.50
2023-04-10T16:54:18.159Z,98196.63
2023-04-10T16:57:04.833Z,98186.91
2023-04-10T16:59:50.218Z,98190.16
2023-04-10T17:02:35.579Z,98190.44
2023-04-10T17:05:21.014Z,98181.09
2023-04-10T17:08:06.660Z,98171.69
2023-04-10T17:11:01.218Z,98157.09
2023-04-10T17:13:47.680Z,98156.28
2023-04-10T17:16:33.586Z,98150.88
2023-04-10T17:19:18.717Z,98132.50
2023-04-10T17:22:04.062Z,98151.31
2023-04-10T17:24:49.343Z,98145.53
2023-04-10T17:27:34.918Z,98133.38
2023-04-10T17:30:20.108Z,98139.59
2023-04-10T17:33:05.517Z,98142.81
2023-04-10T17:35:51.775Z,98141.25
2023-04-10T17:38:37.116Z,98130.66
2023-04-10T17:41:22.249Z,98134.75
2023-04-10T17:44:07.418Z,98130.16
2023-04-10T17:46:52.756Z,98122.97
2023-04-10T17:49:38.515Z,98117.78
2023-04-10T17:52:23.738Z,98110.66
2023-04-10T17:55:09.415Z,98107.22
2023-04-10T17:57:57.249Z,98114.94
2023-04-10T18:00:43.120Z,98115.56
2023-04-10T18:03:28.408Z,98095.97
2023-04-10T18:06:13.610Z,98119.00
2023-04-10T18:08:58.712Z,98030.59
2023-04-10T18:11:44.221Z,98112.25
2023-04-10T18:14:29.641Z,98097.38
2023-04-10T18:17:15.020Z,98098.66
2023-04-10T18:20:00.340Z,98100.72
2023-04-10T18:22:45.545Z,98101.53
2023-04-10T18:25:30.826Z,98105.28
2023-04-10T18:28:17.540Z,98099.34
2023-04-10T18:31:03.715Z,98099.94
2023-04-10T18:34:03.692Z,98093.91
2023-04-10T18:36:52.125Z,98042.22
2023-04-10T18:39:37.282Z,98035.34
2023-04-10T18:42:24.289Z,98076.84
2023-04-10T18:45:10.129Z,98059.34
2023-04-10T18:47:55.375Z,98070.31
2023-04-10T18:50:40.941Z,98063.97
2023-04-10T18:53:26.041Z,98059.91
2023-04-10T18:56:11.252Z,98054.47
2023-04-10T18:58:56.670Z,98032.09
2023-04-10T19:01:42.449Z,98043.69
2023-04-10T19:04:28.086Z,98032.34
2023-04-10T19:07:14.257Z,98040.25
2023-04-10T19:09:59.455Z,98024.19
2023-04-10T19:12:44.592Z,98031.69
2023-04-10T19:15:29.981Z,98026.22
2023-04-10T19:18:16.558Z,98003.59
2023-04-10T19:21:01.914Z,98034.34
2023-04-10T19:23:47.932Z,98024.75
2023-04-10T19:26:33.427Z,98022.94
2023-04-10T19:29:19.082Z,97962.91
2023-04-10T19:32:04.466Z,98003.41
2023-04-10T19:34:49.583Z,98013.56
2023-04-10T19:37:34.990Z,98020.69
2023-04-10T19:40:20.173Z,98013.19
2023-04-10T19:43:05.573Z,98015.41
2023-04-10T19:45:53.352Z,98009.72
2023-04-10T19:48:38.788Z,98000.38
2023-04-10T19:51:24.311Z,97976.38
2023-04-10T19:54:12.516Z,97981.72
2023-04-10T19:56:57.457Z,97971.53
2023-04-10T19:59:43.061Z,97957.88
2023-04-10T20:02:28.348Z,97971.28
2023-04-10T20:05:14.078Z,97973.16
2023-04-10T20:07:59.170Z,97971.88
2023-04-10T20:10:44.396Z,97959.69
2023-04-10T20:13:30.088Z,97954.41
2023-04-10T20:16:15.516Z,97949.94
2023-04-10T20:19:00.671Z,97946.09
2023-04-10T20:21:45.867Z,97929.81
2023-04-10T20:24:31.195Z,97933.91
2023-04-10T20:27:16.621Z,97936.34
2023-04-10T20:30:01.964Z,97932.88
2023-04-10T20:32:47.314Z,97921.09
2023-04-10T20:35:32.905Z,97925.56
2023-04-10T20:38:18.622Z,97928.03
2023-04-10T20:41:03.986Z,97928.19
2023-04-10T20:43:49.398Z,97911.09
2023-04-10T20:46:34.864Z,97911.34
2023-04-10T20:49:20.454Z,97893.25
2023-04-10T20:52:06.485Z,97896.91
2023-04-10T20:54:51.558Z,97874.97
2023-04-10T20:57:37.068Z,97881.06
2023-04-10T21:00:22.442Z,97879.22
2023-04-10T21:03:08.162Z,97877.81
2023-04-10T21:05:53.987Z,97871.09
2023-04-10T21:08:39.606Z,97884.53
2023-04-10T21:11:26.279Z,97865.81
2023-04-10T21:14:13.320Z,97869.28
2023-04-10T21:16:58.546Z,97877.97
2023-04-10T21:19:44.258Z,97879.00
2023-04-10T21:22:29.923Z,97875.75
2023-04-10T21:25:15.507Z,97878.63
2023-04-10T21:28:01.111Z,97865.84
2023-04-10T21:30:46.569Z,97854.66
2023-04-10T21:33:32.014Z,97861.34
2023-04-10T21:36:17.417Z,97859.53
2023-04-10T21:39:02.554Z,97838.19
2023-04-10T21:41:47.723Z,97832.91
2023-04-10T21:44:33.195Z,97822.16
2023-04-10T21:47:18.699Z,97826.59
2023-04-10T21:50:03.997Z,97805.66
2023-04-10T21:52:49.461Z,97814.19
2023-04-10T21:55:34.818Z,97807.63
2023-04-10T21:58:20.420Z,97812.22
2023-04-10T22:01:06.789Z,97725.34
2023-04-10T22:03:52.079Z,97807.53
2023-04-10T22:06:38.790Z,97815.47
2023-04-10T22:09:24.077Z,97798.81
2023-04-10T22:12:10.099Z,97813.41
2023-04-10T22:14:55.443Z,97804.06
2023-04-10T22:17:40.680Z,97792.09
2023-04-10T22:20:26.350Z,97794.75
2023-04-10T22:23:11.366Z,97778.31
2023-04-10T22:25:59.666Z,97774.03
2023-04-10T22:28:45.212Z,97749.69
2023-04-10T22:31:30.590Z,97742.97
2023-04-10T22:34:15.736Z,97751.31
2023-04-10T22:37:01.321Z,97743.19
2023-04-10T22:39:46.721Z,97749.66
2023-04-10T22:42:32.144Z,97750.06
2023-04-10T22:45:17.779Z,97750.88
2023-04-10T22:48:03.606Z,97714.38
2023-04-10T22:50:49.063Z,97723.69
2023-04-10T22:53:34.508Z,97694.69
2023-04-10T22:56:19.786Z,97694.88
2023-04-10T22:59:05.290Z,97718.81
2023-04-10T23:01:51.220Z,97714.75
2023-04-10T23:04:36.874Z,97639.69
2023-04-10T23:07:22.125Z,97705.59
2023-04-10T23:10:09.291Z,97705.00
2023-04-10T23:12:54.711Z,97701.84
2023-04-10T23:15:39.861Z,97694.19
2023-04-10T23:18:24.931Z,97706.09
2023-04-10T23:21:10.229Z,97712.66
2023-04-10T23:23:55.444Z,97708.25
2023-04-10T23:26:41.107Z,97713.94
2023-04-10T23:29:26.276Z,97716.78
2023-04-10T23:32:11.572Z,97702.56
2023-04-10T23:34:56.825Z,97730.19
2023-04-10T23:37:42.149Z,97744.63
2023-04-10T23:40:27.268Z,97736.28
2023-04-10T23:43:12.603Z,97743.56
2023-04-10T23:45:58.029Z,97742.56
2023-04-10T23:48:43.266Z,97744.00
2023-04-10T23:51:28.445Z,97716.34
2023-04-10T23:54:14.233Z,97711.88
2023-04-10T23:56:59.494Z,97727.28
2023-04-10T23:59:44.624Z,97730.75
